AirNav   ATP
 
 590 users online  

03XA Del Sol Medical Center Heliport
El Paso, Texas, USA


FAA INFORMATION EFFECTIVE 20 JULY 2017

Location

FAA Identifier: 03XA
Lat/Long: 31-45-26.7000N / 106-20-49.1000W
31-45.445000N / 106-20.818333W
31.7574167 / -106.3469722
(estimated)
Elevation: 3881 ft. / 1183 m (estimated)
Time zone: UTC -5 (UTC -6 during Standard Time)
Zip code: 79935

Heliport Operations

Heliport use: Private use. Permission required prior to landing
Activation date: 08/2012
Control tower: no
ARTCC: ALBUQUERQUE CENTER
FSS: ALBUQUERQUE FLIGHT SERVICE STATION
Attendance: UNATNDD
Segmented circle: no

Heliport Communications

WX ASOS at ELP (3 nm NW): PHONE 915-774-9497
WX AWOS-3PT at DNA (20 nm W): 124.175 (575-589-2643)

Nearby radio navigation aids

VOR radial/distance  VOR name  Freq  Var
ELPr211/4.8EL PASO VORTAC115.2012E
CJSr018/8.3CIUDAD JUAREZ VOR/DME116.7011E
EWMr186/12.3NEWMAN VORTAC112.4012E

 
NDB name  Hdg/Dist  Freq  Var  ID
VALTR186/6.424208EEL . .-..

Heliport Services

Runway Information

Helipad H1

Dimensions: 54 x 54 ft. / 16 x 16 m
Surface: concrete
Latitude: 31-45.445000N
Longitude: 106-20.818333W
Elevation: 3881.0 ft.
Traffic pattern: leftleft

Heliport Ownership and Management from official FAA records

Ownership: Privately-owned
Owner: DEL SOL MEDICAL CENTER
10301 GATEWAY WEST BLVD
EL PASO, TX 79925
Phone (915) 594-5928
Manager: DEL SOL MEDICAL CENTER
10301 GATEWAY WEST BLVD
EL PASO, TX 79925
Phone (915) 594-5928

Instrument Procedures

There are no published instrument procedures at 03XA.

Some nearby airports with instrument procedures:

KELP - El Paso International Airport (3 nm NW)
KBIF - Biggs Army Airfield (Fort Bliss) (6 nm N)
KDNA - Dona Ana County International Jetport Airport (20 nm W)
KLRU - Las Cruces International Airport (43 nm NW)
KHMN - Holloman Air Force Base (67 nm N)
 
Loc | Ops | Rwys | IFR | FBO | Links
Com | Nav | Svcs | Stats | Notes


 
Aerial photo
No photo
 
Airport distance calculator
Flying to Del Sol Medical Center Heliport? Find the distance to fly.

From to 03XA

Sunrise and sunset
Times for 22-Jul-2017
 Local
(UTC-5)
 Zulu
(UTC)
Morning civil twilight06:4911:49
Sunrise07:1612:16
Sunset21:0802:08
Evening civil twilight21:3502:35

Current date and time
Zulu (UTC)  23-Jul-2017 04:12:09
Local (UTC-5)  22-Jul-2017 23:12:09
 
METAR
KELP 
4nm NW 
230351Z 00000KT 10SM BKN120 BKN250 24/20 A3005 RMK AO2 SLP105 T02390200
KBIF 
6nm N 
230358Z AUTO 00000KT 10SM OVC160 24/18 A3005 RMK AO2 SLP112 T02440175 $
MMCS 
9nm SW 
230240Z 19008KT 10SM SCT040 BKN080 BKN200 24/18 A3008 RMK SLP071 52013 900 8/462 CB W/SW
KDNA 
20nm W 
230355Z AUTO 00000KT 10SM CLR 22/19 A3009 RMK AO2
TAF
KELP 
4nm NW 
222148Z 2222/2318 16009KT P6SM SCT040 SCT120 BKN250 TEMPO 2222/2302 VRB27G37KT 4SM TSRA BKN030CB OVC080 FM230400 20008KT P6SM -SHRA SCT030 BKN050 OVC100 FM231200 15008KT P6SM VCTS SCT040CB BKN070 BKN120
KBIF 
6nm N 
222205Z 2222/2404 15009KT 9999 VCTS BKN100CB QNH2997INS TEMPO 2222/2303 VRB20G35KT 9000 -TSRA BKN050CB BECMG 2304/2305 VRB06KT 9999 NSW SCT050 BKN100 QNH3002INS BECMG 2320/2321 15012KT 9999 VCTS BKN080CB QNH3000INS TX33/2223Z TN19/2312Z
MMCS 
9nm SW 
221728Z 2218/2318 25005KT P6SM SCT030 BKN100 FM222100 13012KT P6SM SCT030CB BKN100 TEMPO 2223/2303 5SM TSRA BKN030CB FM230400 16005KT P6SM SCT030 BKN100 FM231000 09005KT P6SM SCT030CB BKN100 PROB40 2311/2315 5SM TSRA BKN030CB
NOTAMs
Click for the latest NOTAMs
NOTAMs are issued by the DoD/FAA and will open in a separate window not controlled by AirNav.

 

 
 

Would you like to see your business listed on this page?

 If your business provides an interesting product or service to pilots, flight crews, aircraft, or users of the Del Sol Medical Center Heliport, you should consider listing it here.  To start the listing process, click on the button below
 
Add a business
 

Other Pages about Del Sol Medical Center Heliport

Update a link
 
Copyright © AirNav, LLC. All rights reserved. Privacy Policy  Contact